Terminal Aerodrome Forecast
Issued by NWS

Home | Current Version | Previous Version | Text Only | Print | Product List | Glossary On
Versions: 1 2 3 4 5 6 7 8 9 10 11 12
000
FTUS46 KOTX 221728
TAFMWH
TAF
KMWH 221728Z 2218/2318 36007KT P6SM SCT120 BKN200
     FM230000 21005KT P6SM SCT080 BKN120
     FM230800 VRB04KT P6SM SCT120 BKN200=

USA.gov is the U.S. government's official web portal to all federal, state and local government web resources and services.